Terminal Aerodrome Forecast
Issued by NWS

Home | Current Version | Previous Version | Text Only | Print | Product List | Glossary On
Versions: 1 2 3 4 5 6 7 8 9 10 11 12 13 14 15 16
000
FTUS46 KPDT 290500
TAFRDM
TAF
KRDM 290520Z 2906/3006 20014G23KT P6SM VCSH OVC060
     FM291200 29007KT P6SM BKN050
     FM291900 31011G20KT P6SM BKN050
     FM300300 32009KT P6SM SCT040=

USA.gov is the U.S. government's official web portal to all federal, state and local government web resources and services.